Time;durP1;ratioP1;P1;durP2;ratioP2;P2;SDS_P1;SDS_P2;PMS_P1;PMS_P2;Temp;Humidity;BMP_temperature;BMP_pressure;BME280_temperature;BME280_humidity;BME280_pressure;Samples;Min_cycle;Max_cycle;Signal;HPM_P1;HPM_P2
2021/06/15 00:02:06;;;;;;;6.88;3.95;;;;;;;17.89;40.23;101272.09;5024215;27;97997;-74
2021/06/15 00:04:34;;;;;;;7.25;4.50;;;;;;;17.89;40.06;101268.53;5047787;27;97028;-76
2021/06/15 00:07:03;;;;;;;6.28;4.22;;;;;;;17.85;40.21;101266.75;5038641;27;97399;-74
2021/06/15 00:09:31;;;;;;;5.35;3.80;;;;;;;17.49;40.76;101273.00;5025955;27;99713;-74
2021/06/15 00:11:59;;;;;;;4.22;3.40;;;;;;;17.30;40.79;101271.19;5025970;27;99614;-74
2021/06/15 00:14:27;;;;;;;5.28;4.15;;;;;;;17.14;40.83;101272.06;5001452;27;98343;-75
2021/06/15 00:16:56;;;;;;;7.32;3.63;;;;;;;16.99;41.06;101266.63;5037564;27;97819;-75
2021/06/15 00:19:25;;;;;;;8.15;3.95;;;;;;;16.88;41.12;101271.09;5029617;27;99316;-75
2021/06/15 00:21:52;;;;;;;4.10;3.70;;;;;;;16.75;41.34;101267.47;5027050;27;99728;-74
2021/06/15 00:24:20;;;;;;;4.53;3.88;;;;;;;16.65;41.32;101272.78;5009011;27;96888;-75
2021/06/15 00:26:48;;;;;;;3.88;3.58;;;;;;;16.56;41.38;101262.88;5010002;27;96883;-75
2021/06/15 00:29:16;;;;;;;4.28;3.88;;;;;;;16.50;41.55;101267.31;5027725;27;99608;-74
2021/06/15 00:31:44;;;;;;;9.70;4.22;;;;;;;16.42;42.22;101271.75;5012098;27;99638;-75
2021/06/15 00:34:11;;;;;;;6.88;4.78;;;;;;;16.33;41.88;101269.94;5014178;27;97201;-75
2021/06/15 00:36:41;;;;;;;5.38;4.20;;;;;;;16.27;42.26;101272.56;5013152;27;96870;-74
2021/06/15 00:39:08;;;;;;;4.47;4.07;;;;;;;16.20;42.22;101267.16;5008537;27;99748;-74
2021/06/15 00:41:37;;;;;;;7.25;4.05;;;;;;;16.14;42.72;101268.03;5023206;27;97939;-74
2021/06/15 00:44:09;;;;;;;4.53;4.00;;;;;;;16.09;42.57;101265.31;5008543;27;97950;-75
2021/06/15 00:46:37;;;;;;;6.35;4.70;;;;;;;16.03;42.51;101272.44;5030311;27;97129;-74
2021/06/15 00:49:05;;;;;;;7.63;5.38;;;;;;;15.97;42.96;101267.00;5009999;27;98502;-75
2021/06/15 00:51:33;;;;;;;5.13;4.60;;;;;;;15.92;43.05;101268.75;5017525;27;100408;-76
2021/06/15 00:54:03;;;;;;;5.53;4.57;;;;;;;15.86;42.72;101264.25;5027479;27;97834;-74
2021/06/15 00:56:31;;;;;;;5.28;4.45;;;;;;;15.81;42.92;101271.34;5011114;27;98360;-75
2021/06/15 00:58:59;;;;;;;5.10;4.60;;;;;;;15.76;42.87;101269.50;5013552;27;100778;-75
2021/06/15 01:01:27;;;;;;;9.30;5.20;;;;;;;15.71;43.23;101266.81;5026429;27;100635;-75
2021/06/15 01:03:55;;;;;;;8.63;4.55;;;;;;;15.70;43.38;101267.66;5027114;27;97070;-74
2021/06/15 01:06:31;;;;;;;5.53;4.53;;;;;;;15.64;43.65;101270.31;5022385;27;97448;-75
2021/06/15 01:09:05;;;;;;;7.05;4.47;;;;;;;15.61;43.26;101269.41;5031026;27;101344;-75
2021/06/15 01:11:50;;;;;;;4.53;4.10;;;;;;;15.54;44.00;101276.47;5039326;27;97008;-75
2021/06/15 01:14:28;;;;;;;5.43;4.65;;;;;;;15.49;44.10;101269.28;5027317;27;97831;-76
2021/06/15 01:17:00;;;;;;;4.72;4.28;;;;;;;15.46;44.02;101269.28;5016608;27;97898;-75
2021/06/15 01:19:33;;;;;;;5.05;4.50;;;;;;;15.43;44.27;101270.13;5016400;27;100562;-74
2021/06/15 01:22:07;;;;;;;7.35;4.45;;;;;;;15.40;44.46;101267.44;5037675;27;98219;-74
2021/06/15 01:24:48;;;;;;;5.55;4.20;;;;;;;15.37;44.21;101271.88;5018183;27;96685;-75
2021/06/15 01:27:37;;;;;;;4.93;4.20;;;;;;;15.29;45.11;101271.78;5038556;27;96935;-75
2021/06/15 01:30:08;;;;;;;5.13;4.10;;;;;;;15.28;44.56;101261.94;5014978;27;99174;-74
2021/06/15 01:32:38;;;;;;;4.75;3.90;;;;;;;15.25;44.48;101261.00;4990434;27;99160;-74
2021/06/15 01:35:08;;;;;;;5.40;4.90;;;;;;;15.25;44.81;101282.47;5034456;27;96859;-74
2021/06/15 01:37:40;;;;;;;5.63;4.32;;;;;;;15.22;44.61;101288.66;5033379;27;98029;-74
2021/06/15 01:40:13;;;;;;;8.82;5.13;;;;;;;15.23;44.88;101276.19;5013986;27;99721;-75
2021/06/15 01:43:04;;;;;;;7.63;4.88;;;;;;;15.19;44.85;101272.56;5033847;27;99484;-75
2021/06/15 01:45:36;;;;;;;6.57;5.32;;;;;;;15.17;44.60;101274.34;5026349;27;97911;-75
2021/06/15 01:48:11;;;;;;;5.68;4.60;;;;;;;15.14;44.77;101277.88;5046309;27;97620;-75
2021/06/15 01:50:43;;;;;;;9.20;5.07;;;;;;;15.13;44.73;101275.19;5025804;27;99112;-75
2021/06/15 01:53:16;;;;;;;5.05;4.55;;;;;;;15.12;44.77;101273.34;5044481;27;98445;-75
2021/06/15 01:55:48;;;;;;;8.52;5.03;;;;;;;15.12;44.75;101276.03;5028836;27;97096;-76
2021/06/15 01:58:22;;;;;;;7.28;4.90;;;;;;;15.14;44.80;101272.50;5034241;27;97021;-76
2021/06/15 02:00:51;;;;;;;9.77;6.00;;;;;;;15.17;44.89;101280.56;5027809;27;99299;-75
2021/06/15 02:03:20;;;;;;;14.15;5.60;;;;;;;15.20;44.74;101279.72;5021741;27;99730;-76
2021/06/15 02:05:49;;;;;;;7.28;5.82;;;;;;;15.22;44.44;101279.72;5041465;27;97201;-76
2021/06/15 02:08:21;;;;;;;5.35;4.80;;;;;;;15.24;44.54;101278.88;5014191;27;97050;-75
2021/06/15 02:10:49;;;;;;;7.47;5.05;;;;;;;15.22;44.43;101280.63;5028620;27;98469;-75
2021/06/15 02:13:38;;;;;;;8.35;5.32;;;;;;;15.21;44.72;101276.13;5048195;27;101393;-76
2021/06/15 02:16:45;;;;;;;6.82;5.88;;;;;;;15.20;44.25;101278.81;4995310;28;97420;-75
2021/06/15 02:19:24;;;;;;;8.23;4.93;;;;;;;15.17;44.52;101279.69;4984137;27;98360;-75
2021/06/15 02:21:56;;;;;;;5.88;5.32;;;;;;;15.17;44.69;101279.69;5005570;27;99628;-76
2021/06/15 02:24:31;;;;;;;9.00;5.47;;;;;;;15.19;44.35;101285.97;5034237;27;100694;-75
2021/06/15 02:27:01;;;;;;;5.47;4.97;;;;;;;15.19;44.25;101283.28;5050886;27;99039;-76
2021/06/15 02:29:31;;;;;;;7.03;5.68;;;;;;;15.21;44.31;101280.63;5038356;27;96860;-76
2021/06/15 02:32:01;;;;;;;7.72;5.18;;;;;;;15.20;44.10;101286.84;5011939;27;99611;-75
2021/06/15 02:34:30;;;;;;;7.05;5.25;;;;;;;15.20;44.24;101284.16;5014856;27;98849;-75
2021/06/15 02:37:05;;;;;;;9.75;5.95;;;;;;;15.19;43.86;101285.97;5028904;27;97116;-77
2021/06/15 02:39:34;;;;;;;8.82;5.47;;;;;;;15.22;43.70;101295.81;5034439;27;97896;-76
2021/06/15 02:42:07;;;;;;;9.35;6.05;;;;;;;15.21;43.89;101289.53;5031127;27;101841;-77
2021/06/15 02:44:39;;;;;;;8.07;6.22;;;;;;;15.21;43.95;101289.53;5011423;27;97652;-75
2021/06/15 02:47:11;;;;;;;7.07;5.13;;;;;;;15.21;43.75;101291.34;5031850;27;98824;-76
2021/06/15 02:49:42;;;;;;;7.47;5.45;;;;;;;15.24;43.50;101284.22;5012170;27;98038;-74
2021/06/15 02:52:17;;;;;;;7.85;5.28;;;;;;;15.25;43.24;101288.69;5029872;27;98480;-76
2021/06/15 02:54:47;;;;;;;6.20;5.07;;;;;;;15.24;43.48;101292.28;5014054;27;98124;-76
2021/06/15 02:57:17;;;;;;;8.55;6.10;;;;;;;15.23;43.35;101293.13;5036837;27;96952;-75
2021/06/15 02:59:46;;;;;;;7.32;5.53;;;;;;;15.23;43.26;101295.81;5037671;27;98002;-75
2021/06/15 03:02:14;;;;;;;7.30;6.60;;;;;;;15.21;43.48;101294.91;5025203;27;99039;-75
2021/06/15 03:04:46;;;;;;;7.57;5.57;;;;;;;15.20;43.69;101308.28;5039100;27;100316;-75
2021/06/15 03:07:15;;;;;;;8.00;5.97;;;;;;;15.17;43.58;101308.28;5028382;27;97190;-75
2021/06/15 03:09:44;;;;;;;10.90;6.45;;;;;;;15.14;43.31;101312.72;5050179;27;96922;-75
2021/06/15 03:12:19;;;;;;;8.15;6.15;;;;;;;15.14;43.58;101312.72;5040898;27;98861;-76
2021/06/15 03:14:55;;;;;;;7.85;6.97;;;;;;;15.13;43.31;101316.31;5016055;27;99448;-75
2021/06/15 03:17:25;;;;;;;8.05;6.55;;;;;;;15.14;43.45;101314.50;5030046;27;96905;-74
2021/06/15 03:19:58;;;;;;;7.13;5.95;;;;;;;15.14;43.26;101322.53;5028804;27;97296;-76
2021/06/15 03:22:30;;;;;;;8.43;6.75;;;;;;;15.14;43.56;101322.53;5015040;27;101619;-77
2021/06/15 03:25:00;;;;;;;10.93;6.50;;;;;;;15.15;43.00;101313.63;5029841;27;97957;-75
2021/06/15 03:27:34;;;;;;;7.05;6.32;;;;;;;15.14;43.35;101312.72;5019051;27;97926;-75
2021/06/15 03:30:08;;;;;;;9.88;7.22;;;;;;;15.15;43.39;101319.00;5041886;27;97229;-76
2021/06/15 03:32:43;;;;;;;7.80;6.68;;;;;;;15.15;43.30;101327.03;5024927;27;100043;-74
2021/06/15 03:35:13;;;;;;;9.98;6.68;;;;;;;15.17;43.11;101325.28;5024899;27;98558;-76
2021/06/15 03:37:51;;;;;;;8.00;6.72;;;;;;;15.14;43.35;101322.53;5033972;27;98062;-76
2021/06/15 03:40:21;;;;;;;10.80;7.50;;;;;;;15.14;43.35;101317.16;5032468;27;97530;-75
2021/06/15 03:42:50;;;;;;;8.55;6.93;;;;;;;15.14;43.26;101317.16;5028168;27;99749;-74
2021/06/15 03:45:24;;;;;;;10.30;7.63;;;;;;;15.12;43.44;101332.34;5040916;27;98664;-75
2021/06/15 03:47:53;;;;;;;8.60;6.53;;;;;;;15.13;43.48;101324.34;5009796;27;97976;-74
2021/06/15 03:50:22;;;;;;;9.48;7.65;;;;;;;15.14;43.44;101326.13;5022964;27;97865;-75
2021/06/15 03:52:52;;;;;;;13.07;6.93;;;;;;;15.13;43.08;101332.38;5043490;27;99598;-73
2021/06/15 03:55:23;;;;;;;10.15;7.82;;;;;;;15.13;43.16;101329.69;5039624;27;97689;-74
2021/06/15 03:57:51;;;;;;;94.93;54.45;;;;;;;15.12;43.48;101333.25;5042385;27;97851;-74
2021/06/15 04:00:23;;;;;;;49.03;30.80;;;;;;;15.11;43.38;101325.19;5028260;27;98421;-74
2021/06/15 04:02:54;;;;;;;11.82;9.77;;;;;;;15.12;43.37;101325.19;5037820;27;98630;-74
2021/06/15 04:05:26;;;;;;;11.00;7.53;;;;;;;15.12;43.15;101322.53;5013697;27;99069;-73
2021/06/15 04:07:56;;;;;;;9.30;7.90;;;;;;;15.13;43.30;101331.47;5025483;27;97499;-74
2021/06/15 04:10:25;;;;;;;9.15;7.70;;;;;;;15.12;43.43;101327.88;5029258;27;97011;-72
2021/06/15 04:12:55;;;;;;;9.77;7.85;;;;;;;15.15;43.24;101340.44;5031050;27;101033;-72
2021/06/15 04:15:26;;;;;;;8.25;7.45;;;;;;;15.14;43.43;101341.28;5025016;27;99791;-74
2021/06/15 04:17:57;;;;;;;42.70;28.65;;;;;;;15.13;43.23;101344.88;5037811;27;97554;-74
2021/06/15 04:20:29;;;;;;;71.88;42.35;;;;;;;15.14;43.19;101346.66;5028327;27;97038;-74
2021/06/15 04:22:57;;;;;;;14.80;10.55;;;;;;;15.13;43.43;101344.88;5036556;27;96910;-73
2021/06/15 04:25:28;;;;;;;10.77;8.23;;;;;;;15.10;43.50;101342.16;5024380;27;99189;-74
2021/06/15 04:27:56;;;;;;;12.07;9.10;;;;;;;15.09;43.45;101349.31;5012041;27;97468;-72
2021/06/15 04:30:29;;;;;;;10.10;8.10;;;;;;;15.09;43.48;101354.66;5023083;27;97119;-74
2021/06/15 04:33:01;;;;;;;10.02;8.00;;;;;;;15.09;43.46;101351.06;5039416;27;97639;-74
2021/06/15 04:35:32;;;;;;;13.60;9.13;;;;;;;15.08;43.37;101357.34;5025509;27;99478;-75
2021/06/15 04:38:03;;;;;;;11.05;8.48;;;;;;;15.09;43.38;101359.13;5028138;27;98154;-75
2021/06/15 04:40:36;;;;;;;12.50;7.88;;;;;;;15.10;43.58;101363.63;5039465;27;97041;-73
2021/06/15 04:43:20;;;;;;;8.88;7.97;;;;;;;15.08;43.83;101366.25;5024105;27;99227;-73
2021/06/15 04:45:50;;;;;;;22.73;15.23;;;;;;;15.13;43.57;101360.97;5021970;27;99574;-74
2021/06/15 04:48:25;;;;;;;33.40;20.35;;;;;;;15.16;43.31;101362.78;5038153;27;97117;-71
2021/06/15 04:50:58;;;;;;;13.27;9.25;;;;;;;15.17;43.48;101359.22;5037690;27;98078;-73
2021/06/15 04:53:46;;;;;;;9.73;8.18;;;;;;;15.19;43.56;101353.00;5020916;27;100627;-71
2021/06/15 04:56:15;;;;;;;11.82;8.82;;;;;;;15.19;43.50;101366.41;5027014;27;99597;-72
2021/06/15 04:58:44;;;;;;;12.82;7.97;;;;;;;15.21;43.56;101363.75;5025203;27;97702;-73
2021/06/15 05:01:14;;;;;;;16.42;9.00;;;;;;;15.19;43.53;101365.50;5025838;27;97533;-72
2021/06/15 05:03:43;;;;;;;9.88;8.27;;;;;;;15.20;43.51;101367.28;5039044;27;98484;-74
2021/06/15 05:06:11;;;;;;;10.82;8.20;;;;;;;15.20;43.80;101372.63;5025077;27;99333;-74
2021/06/15 05:08:41;;;;;;;11.60;9.32;;;;;;;15.25;43.48;101374.50;5025614;27;97941;-74
2021/06/15 05:11:10;;;;;;;12.32;8.60;;;;;;;15.26;43.70;101376.31;5039010;27;97787;-74
2021/06/15 05:13:40;;;;;;;117.50;64.15;;;;;;;15.29;43.49;101378.09;5041222;27;99021;-73
2021/06/15 05:16:09;;;;;;;27.35;16.92;;;;;;;15.34;43.30;101382.69;5036561;27;97407;-73
2021/06/15 05:18:39;;;;;;;13.82;9.43;;;;;;;15.33;43.37;101380.91;5026295;27;96830;-72
2021/06/15 05:21:08;;;;;;;12.75;8.98;;;;;;;15.36;43.44;101391.63;5025235;27;97256;-72
2021/06/15 05:23:41;;;;;;;10.73;9.65;;;;;;;15.39;43.59;101393.47;5047233;27;101101;-75
2021/06/15 05:26:09;;;;;;;12.57;10.02;;;;;;;15.42;43.38;101399.78;5045984;27;99326;-73
2021/06/15 05:28:37;;;;;;;12.55;8.98;;;;;;;15.44;43.39;101399.78;5034061;27;97139;-72
2021/06/15 05:31:05;;;;;;;12.68;8.98;;;;;;;15.44;43.29;101398.00;5026273;27;97976;-72
2021/06/15 05:33:33;;;;;;;11.57;9.50;;;;;;;15.47;43.45;101410.53;5025188;27;97170;-73
2021/06/15 05:36:02;;;;;;;15.05;9.25;;;;;;;15.44;43.72;101416.78;5047805;27;98025;-73
2021/06/15 05:38:30;;;;;;;34.83;21.33;;;;;;;15.48;43.87;101423.06;5043356;27;97490;-72
2021/06/15 05:40:59;;;;;;;18.77;14.63;;;;;;;15.48;43.46;101418.63;5032694;27;97706;-72
2021/06/15 05:43:26;;;;;;;12.38;10.00;;;;;;;15.50;43.51;101426.69;5041735;27;97662;-72
2021/06/15 05:45:55;;;;;;;11.60;10.27;;;;;;;15.49;43.74;101424.84;5047243;27;99238;-74
2021/06/15 05:48:23;;;;;;;14.48;10.05;;;;;;;15.47;43.85;101432.00;5029894;27;97844;-72
2021/06/15 05:50:50;;;;;;;13.30;10.90;;;;;;;15.45;43.85;101429.28;5035863;27;97606;-71
2021/06/15 05:53:20;;;;;;;11.73;9.80;;;;;;;15.46;43.82;101447.22;5041039;27;97636;-73
2021/06/15 05:55:49;;;;;;;13.90;10.40;;;;;;;15.48;43.71;101429.34;5042271;27;98368;-72
2021/06/15 05:58:16;;;;;;;13.52;10.38;;;;;;;15.49;43.96;101433.81;5042615;27;97333;-72
2021/06/15 06:00:46;;;;;;;17.08;12.48;;;;;;;15.51;44.14;101434.75;5043236;27;96852;-73
2021/06/15 06:03:18;;;;;;;50.53;33.67;;;;;;;15.53;43.92;101441.03;5026659;27;99717;-72
2021/06/15 06:08:32;;;;;;;15.85;11.15;;;;;;;15.50;43.89;101442.78;5032014;27;98896;-71
2021/06/15 06:11:01;;;;;;;11.43;10.00;;;;;;;15.53;44.11;101450.84;5025756;27;97602;-73
2021/06/15 06:13:29;;;;;;;12.55;11.05;;;;;;;15.53;44.24;101442.81;5043659;27;97225;-72
2021/06/15 06:16:01;;;;;;;15.48;11.00;;;;;;;15.56;44.33;101441.03;5025420;27;99275;-74
2021/06/15 06:18:29;;;;;;;12.80;11.18;;;;;;;15.59;43.86;101443.78;5020769;27;97157;-72
2021/06/15 06:20:57;;;;;;;16.77;11.60;;;;;;;15.61;44.05;101435.75;5045880;27;98162;-72
2021/06/15 06:23:28;;;;;;;16.75;11.45;;;;;;;15.64;43.84;101444.72;5026844;27;101130;-74
2021/06/15 06:25:57;;;;;;;14.30;10.25;;;;;;;15.69;44.14;101444.75;5024670;27;99541;-74
2021/06/15 06:28:25;;;;;;;15.65;10.88;;;;;;;15.74;44.09;101443.94;5028600;27;97061;-73
2021/06/15 06:30:52;;;;;;;16.38;11.32;;;;;;;15.80;43.97;101435.03;5027211;27;97214;-71
2021/06/15 06:33:20;;;;;;;13.80;10.70;;;;;;;15.81;43.68;101443.09;5029253;27;99404;-72
2021/06/15 06:35:48;;;;;;;12.98;10.55;;;;;;;15.85;43.92;101442.25;5028438;27;100669;-73
2021/06/15 06:38:16;;;;;;;13.80;10.80;;;;;;;15.88;43.88;101446.75;5028372;27;97339;-73
2021/06/15 06:40:44;;;;;;;13.90;10.77;;;;;;;15.89;44.08;101446.78;5042319;27;98623;-72
2021/06/15 06:43:13;;;;;;;15.40;11.32;;;;;;;15.91;43.80;101447.69;5040043;27;97648;-71
2021/06/15 06:45:41;;;;;;;16.92;10.65;;;;;;;15.92;43.73;101446.78;5025337;27;99323;-72
2021/06/15 06:48:10;;;;;;;17.20;11.70;;;;;;;15.95;43.85;101454.91;5030407;27;96903;-72
2021/06/15 06:50:38;;;;;;;41.80;27.02;;;;;;;15.98;43.79;101459.38;5037042;27;97164;-71
2021/06/15 06:53:06;;;;;;;20.45;14.95;;;;;;;15.97;43.69;101458.50;5029084;27;100635;-74
2021/06/15 06:55:34;;;;;;;15.27;11.20;;;;;;;15.94;44.06;101461.13;5026178;27;98725;-72
2021/06/15 06:58:02;;;;;;;14.57;11.55;;;;;;;15.96;44.13;101464.72;5029868;27;97690;-75
2021/06/15 07:00:31;;;;;;;17.15;11.80;;;;;;;15.99;43.96;101461.19;5032139;27;97592;-72
2021/06/15 07:02:59;;;;;;;22.27;15.48;;;;;;;16.02;43.72;101456.78;5020391;27;98748;-72
2021/06/15 07:05:28;;;;;;;17.98;11.70;;;;;;;15.98;44.21;101457.59;5032133;27;99365;-71
2021/06/15 07:07:55;;;;;;;16.80;12.90;;;;;;;15.97;44.37;101466.56;5032891;27;96893;-72
2021/06/15 07:10:23;;;;;;;19.58;12.68;;;;;;;15.98;44.06;101462.06;5040928;27;98084;-72
2021/06/15 07:12:52;;;;;;;16.52;11.63;;;;;;;15.98;44.39;101460.28;5042950;27;100372;-71
2021/06/15 07:15:21;;;;;;;15.90;12.25;;;;;;;16.02;43.97;101459.47;5031313;27;97659;-73
2021/06/15 07:17:50;;;;;;;19.38;13.90;;;;;;;16.06;44.07;101457.72;5027847;27;98054;-73
2021/06/15 07:20:18;;;;;;;21.08;15.13;;;;;;;16.10;44.27;101462.22;5029280;27;98304;-74
2021/06/15 07:22:46;;;;;;;14.90;11.65;;;;;;;16.15;44.27;101446.16;5031008;27;97924;-74
2021/06/15 07:25:15;;;;;;;16.65;11.15;;;;;;;16.17;44.17;101447.97;5031718;27;99376;-74
2021/06/15 07:27:43;;;;;;;14.20;12.43;;;;;;;16.23;44.25;101453.41;5007015;27;97962;-72
2021/06/15 07:30:11;;;;;;;14.82;11.60;;;;;;;16.21;44.11;101460.53;5021558;27;98924;-74
2021/06/15 07:32:39;;;;;;;60.67;37.92;;;;;;;16.23;43.78;101455.19;5029245;27;98951;-73
2021/06/15 07:35:11;;;;;;;22.92;15.75;;;;;;;16.26;43.91;101460.56;5032914;27;97936;-71
2021/06/15 07:37:39;;;;;;;16.60;11.88;;;;;;;16.27;44.07;101459.69;5023211;27;97046;-73
2021/06/15 07:40:09;;;;;;;13.85;11.25;;;;;;;16.30;44.21;101460.63;4998454;27;97013;-74
2021/06/15 07:42:36;;;;;;;15.23;11.70;;;;;;;16.35;43.64;101463.34;5004242;27;99341;-73
2021/06/15 07:45:06;;;;;;;13.05;10.57;;;;;;;16.38;43.84;101458.88;5022185;27;98790;-74
2021/06/15 07:47:33;;;;;;;12.98;10.93;;;;;;;16.43;43.78;101464.31;5024026;27;97404;-72
2021/06/15 07:50:15;;;;;;;14.45;11.25;;;;;;;16.51;43.96;101459.88;5035750;27;97986;-73
2021/06/15 07:52:43;;;;;;;14.60;11.88;;;;;;;16.56;43.78;101456.31;5020473;27;99926;-74
2021/06/15 07:55:12;;;;;;;15.20;11.23;;;;;;;16.61;43.54;101448.31;5024347;27;97643;-73
2021/06/15 07:57:40;;;;;;;15.77;11.13;;;;;;;16.66;43.65;101451.94;5004709;27;97005;-71
2021/06/15 08:00:10;;;;;;;13.95;10.73;;;;;;;16.69;43.53;101452.84;5021766;27;97541;-73
2021/06/15 08:02:43;;;;;;;77.88;48.47;;;;;;;16.76;43.42;101453.84;5047947;27;99785;-73
2021/06/15 08:05:14;;;;;;;24.58;16.60;;;;;;;16.81;43.42;101470.88;5024636;27;99184;-71
2021/06/15 08:07:44;;;;;;;17.00;12.32;;;;;;;16.82;43.25;101464.59;5036566;27;97874;-73
2021/06/15 08:10:13;;;;;;;15.80;11.70;;;;;;;16.85;43.21;101470.03;5033997;27;97330;-72
2021/06/15 08:12:40;;;;;;;17.77;13.82;;;;;;;16.86;43.19;101478.09;5033225;27;100720;-73
2021/06/15 08:15:09;;;;;;;16.40;11.32;;;;;;;16.82;43.65;101476.28;5017179;27;99152;-73
2021/06/15 08:17:37;;;;;;;15.40;10.63;;;;;;;16.75;43.73;101482.50;5007757;27;97873;-73
2021/06/15 08:20:06;;;;;;;16.20;11.82;;;;;;;16.77;43.56;101478.03;5039430;27;97330;-72
2021/06/15 08:22:35;;;;;;;14.10;10.95;;;;;;;16.81;43.65;101478.94;5031513;27;100515;-72
2021/06/15 08:25:04;;;;;;;12.95;11.23;;;;;;;16.87;43.80;101479.00;5029525;27;99167;-74
2021/06/15 08:27:34;;;;;;;18.27;12.68;;;;;;;16.91;43.54;101481.69;5040448;27;97441;-74
2021/06/15 08:30:02;;;;;;;16.98;12.70;;;;;;;16.94;43.32;101496.97;5040430;27;97601;-72
2021/06/15 08:32:30;;;;;;;15.68;12.73;;;;;;;16.96;43.47;101497.88;5049706;27;100074;-72
2021/06/15 08:34:58;;;;;;;15.35;11.77;;;;;;;16.99;43.18;101495.19;5039590;27;98729;-73
2021/06/15 08:37:26;;;;;;;15.13;11.73;;;;;;;17.01;43.36;101494.31;5025942;27;96844;-75
2021/06/15 08:39:55;;;;;;;13.18;10.75;;;;;;;17.03;43.39;101495.25;5039854;27;97398;-71
2021/06/15 08:42:23;;;;;;;36.05;24.88;;;;;;;17.06;43.20;101491.66;5025502;27;98887;-71
2021/06/15 08:44:51;;;;;;;24.40;17.00;;;;;;;17.10;43.19;101490.78;5026866;27;98012;-73
2021/06/15 08:47:19;;;;;;;18.25;13.80;;;;;;;17.14;42.91;101491.69;5027667;27;97729;-73
2021/06/15 08:49:47;;;;;;;20.02;13.20;;;;;;;17.18;42.93;101497.13;5031279;27;97804;-72
2021/06/15 08:52:15;;;;;;;14.25;11.90;;;;;;;17.23;42.88;101500.72;5033132;27;99472;-73
2021/06/15 08:54:45;;;;;;;16.13;10.75;;;;;;;17.23;43.17;101489.06;5015146;27;100698;-74
2021/06/15 08:57:19;;;;;;;15.13;12.07;;;;;;;17.25;43.18;101501.63;5046618;27;97834;-75
2021/06/15 08:59:46;;;;;;;16.17;11.32;;;;;;;17.28;43.06;101503.41;5017579;27;97079;-75
2021/06/15 09:02:14;;;;;;;15.23;11.40;;;;;;;17.31;43.02;101509.72;5018061;27;101067;-73
2021/06/15 09:04:43;;;;;;;13.55;11.48;;;;;;;17.36;43.17;101501.69;5047920;27;97634;-75
2021/06/15 09:07:12;;;;;;;12.80;11.48;;;;;;;17.38;42.94;101503.53;5047320;27;97713;-76
2021/06/15 09:09:41;;;;;;;14.07;12.10;;;;;;;17.45;42.88;101504.44;5028569;27;97306;-78
2021/06/15 09:12:10;;;;;;;15.98;11.77;;;;;;;17.49;42.84;101508.97;5037509;27;100852;-77
2021/06/15 09:14:43;;;;;;;16.75;12.25;;;;;;;17.53;42.87;101500.00;5045141;27;98932;-76
2021/06/15 09:17:18;;;;;;;14.95;11.98;;;;;;;17.56;42.74;101500.91;5046175;27;97168;-73
2021/06/15 09:19:47;;;;;;;15.70;12.00;;;;;;;17.60;42.58;101501.81;5045052;27;97337;-78
2021/06/15 09:22:26;;;;;;;15.40;12.57;;;;;;;17.59;43.68;101489.25;5045418;27;97766;-77
2021/06/15 09:24:54;;;;;;;25.77;20.13;;;;;;;17.65;42.70;101498.25;5032255;27;100452;-76
2021/06/15 09:27:29;;;;;;;12.73;11.43;;;;;;;17.69;43.02;101477.63;5037777;27;97444;-74
2021/06/15 09:29:59;;;;;;;16.55;10.90;;;;;;;17.74;42.74;101490.22;5046461;27;97155;-75
2021/06/15 09:32:28;;;;;;;12.85;10.98;;;;;;;17.80;42.75;101492.91;5036201;27;101131;-74
2021/06/15 09:34:58;;;;;;;15.50;12.73;;;;;;;17.85;42.66;101491.13;5037170;27;99603;-73
2021/06/15 09:37:29;;;;;;;15.85;11.73;;;;;;;17.82;42.77;101492.94;5046199;27;97116;-74
2021/06/15 09:39:57;;;;;;;13.93;11.32;;;;;;;17.86;42.85;101495.63;5038690;27;97005;-76
2021/06/15 09:42:25;;;;;;;14.10;11.63;;;;;;;17.88;42.65;101499.22;5042094;27;100992;-73
2021/06/15 09:44:53;;;;;;;30.08;23.98;;;;;;;17.94;42.75;101499.22;5045585;27;96895;-74
2021/06/15 09:47:24;;;;;;;19.63;15.35;;;;;;;17.98;42.61;101495.63;5034798;27;97353;-72
2021/06/15 09:49:54;;;;;;;14.68;11.27;;;;;;;18.06;42.63;101497.50;5018030;27;97072;-75
2021/06/15 09:52:25;;;;;;;15.93;11.25;;;;;;;18.09;42.58;101487.63;5000426;27;101664;-76
2021/06/15 09:54:54;;;;;;;15.43;11.00;;;;;;;18.14;42.32;101493.91;5015349;27;97763;-74
2021/06/15 09:57:26;;;;;;;17.30;13.00;;;;;;;18.19;42.60;101488.50;5020605;27;96964;-73
2021/06/15 09:59:59;;;;;;;14.00;11.57;;;;;;;18.21;42.63;101500.19;5047519;27;97572;-76
2021/06/15 10:02:30;;;;;;;17.60;10.77;;;;;;;18.24;42.55;101489.44;5032950;27;99343;-72
2021/06/15 10:04:58;;;;;;;10.73;9.30;;;;;;;18.25;42.25;101488.53;5017196;27;100340;-73
2021/06/15 10:07:27;;;;;;;13.98;9.23;;;;;;;18.25;42.27;101494.81;5042100;27;97823;-73
2021/06/15 10:09:55;;;;;;;11.82;8.70;;;;;;;18.25;42.21;101489.44;5030337;27;96963;-75
2021/06/15 10:12:24;;;;;;;9.55;8.60;;;;;;;18.28;42.28;101485.81;5021096;27;100666;-74
2021/06/15 10:14:54;;;;;;;35.47;24.38;;;;;;;18.31;42.35;101485.84;5031889;27;98539;-73
2021/06/15 10:17:23;;;;;;;14.60;10.40;;;;;;;18.35;42.13;101490.34;5043205;27;98303;-79
2021/06/15 10:19:52;;;;;;;12.65;9.77;;;;;;;18.31;42.26;101483.16;5024361;27;97096;-74
2021/06/15 10:22:20;;;;;;;12.70;9.13;;;;;;;18.35;42.03;101484.97;5040642;27;99273;-74
2021/06/15 10:24:49;;;;;;;9.45;8.45;;;;;;;18.39;42.05;101484.03;5010582;27;98921;-76
2021/06/15 10:27:17;;;;;;;11.15;7.95;;;;;;;18.43;42.20;101486.75;5041290;27;97584;-72
2021/06/15 10:29:50;;;;;;;10.30;8.63;;;;;;;18.44;42.10;101484.97;5026514;27;96958;-77
2021/06/15 10:32:20;;;;;;;12.23;8.30;;;;;;;18.50;41.68;101479.53;5011959;27;98919;-74
2021/06/15 10:34:57;;;;;;;28.80;21.50;;;;;;;18.52;41.98;101484.03;5013510;27;101208;-74
2021/06/15 10:37:42;;;;;;;31.70;22.80;;;;;;;18.56;41.86;101485.84;5033930;27;97475;-74
2021/06/15 10:40:37;;;;;;;14.32;11.20;;;;;;;18.62;41.56;101479.56;5048144;27;97252;-75
2021/06/15 10:43:19;;;;;;;10.73;8.05;;;;;;;18.67;41.60;101475.03;5041563;27;100079;-73
2021/06/15 10:45:51;;;;;;;9.68;7.72;;;;;;;18.67;41.42;101475.94;5027181;27;99522;-77
2021/06/15 10:48:44;;;;;;;13.60;9.15;;;;;;;18.66;41.13;101478.66;5041018;27;97908;-71
2021/06/15 10:51:32;;;;;;;10.77;8.32;;;;;;;18.68;41.94;101482.22;5029376;27;96871;-77
2021/06/15 10:54:05;;;;;;;10.63;8.63;;;;;;;18.69;41.35;101481.38;5015829;27;101105;-73
2021/06/15 10:56:35;;;;;;;12.40;8.70;;;;;;;18.75;41.36;101481.38;5042567;27;98273;-77
2021/06/15 10:59:09;;;;;;;14.90;11.68;;;;;;;18.97;41.33;101477.72;5029683;27;97499;-77
2021/06/15 11:01:41;;;;;;;10.52;8.77;;;;;;;18.94;41.57;101477.72;5052885;27;97452;-73
2021/06/15 11:04:11;;;;;;;10.35;9.32;;;;;;;18.96;41.59;101475.94;5042768;27;98749;-77
2021/06/15 11:06:53;;;;;;;9.38;8.48;;;;;;;18.98;41.67;101474.13;5042447;27;98873;-76
2021/06/15 11:09:33;;;;;;;8.57;7.72;;;;;;;19.01;41.44;101472.31;5032750;27;97196;-74
2021/06/15 11:12:23;;;;;;;8.70;7.68;;;;;;;19.01;41.81;101464.22;5050965;27;97397;-74
2021/06/15 11:15:13;;;;;;;43.03;30.55;;;;;;;19.09;41.02;101469.59;5030963;27;98032;-74
2021/06/15 11:17:51;;;;;;;14.00;10.55;;;;;;;19.14;41.18;101458.78;5039393;27;97927;-78
2021/06/15 11:20:31;;;;;;;9.32;7.75;;;;;;;19.18;40.59;101469.56;5028808;27;97937;-75
2021/06/15 11:23:15;;;;;;;9.48;7.68;;;;;;;19.24;41.05;101465.94;5038127;27;98045;-74
2021/06/15 11:25:47;;;;;;;7.90;7.10;;;;;;;19.26;40.95;101473.16;5040803;27;98287;-76
2021/06/15 11:28:57;;;;;;;11.70;9.13;;;;;;;19.51;40.12;101461.38;5002795;27;99006;-75
2021/06/15 11:31:33;;;;;;;11.18;8.88;;;;;;;19.63;40.07;101461.28;5022793;27;98381;-73
2021/06/15 11:34:15;;;;;;;9.38;8.45;;;;;;;19.66;40.39;101463.09;5038662;27;97526;-74
2021/06/15 11:36:53;;;;;;;8.40;7.47;;;;;;;19.61;40.21;101456.84;5040330;27;98891;-75
2021/06/15 11:39:34;;;;;;;11.15;8.63;;;;;;;19.60;40.37;101447.81;5027016;27;99105;-74